Time;durP1;ratioP1;P1;durP2;ratioP2;P2;SDS_P1;SDS_P2;PMS_P1;PMS_P2;Temp;Humidity;BMP_temperature;BMP_pressure;BME280_temperature;BME280_humidity;BME280_pressure;Samples;Min_cycle;Max_cycle;Signal;HPM_P1;HPM_P2
2022/03/29 00:03:13;;;;;;;4.20;2.47;;;14.50;99.90;;;;;;10269496;28;20240;-85
2022/03/29 00:08:15;;;;;;;3.50;2.90;;;15.30;99.90;;;;;;10286303;28;20675;-85
2022/03/29 00:13:18;;;;;;;4.37;2.80;;;15.20;99.90;;;;;;10268825;28;20299;-85
2022/03/29 00:18:38;;;;;;;3.17;2.77;;;15.70;99.90;;;;;;10270009;28;20635;-85
2022/03/29 00:23:40;;;;;;;3.53;2.93;;;16.20;99.90;;;;;;10293847;28;20645;-85
2022/03/29 00:28:43;;;;;;;3.97;2.53;;;16.30;99.90;;;;;;10294027;28;20225;-85
2022/03/29 00:33:47;;;;;;;3.50;3.20;;;16.50;99.90;;;;;;10293942;28;20225;-85
2022/03/29 00:38:49;;;;;;;4.80;3.70;;;16.50;99.90;;;;;;10293436;28;20299;-85
2022/03/29 00:43:52;;;;;;;3.87;3.30;;;16.50;99.90;;;;;;10292707;28;20303;-85
2022/03/29 00:48:55;;;;;;;3.43;2.83;;;16.50;99.90;;;;;;10292683;28;20276;-85
2022/03/29 00:53:57;;;;;;;2.87;2.57;;;16.60;99.90;;;;;;10292589;28;20331;-85
2022/03/29 00:59:00;;;;;;;5.30;3.07;;;16.60;99.90;;;;;;10292974;28;20629;-85
2022/03/29 01:04:03;;;;;;;4.13;2.80;;;16.60;99.90;;;;;;10292651;28;20260;-85
2022/03/29 01:09:05;;;;;;;3.83;3.13;;;16.50;99.90;;;;;;10275231;28;20228;-85
2022/03/29 01:14:08;;;;;;;3.83;2.87;;;16.80;99.90;;;;;;10275184;28;20233;-85
2022/03/29 01:19:13;;;;;;;4.57;2.87;;;16.90;99.50;;;;;;10291713;28;20293;-85
2022/03/29 01:24:15;;;;;;;5.03;3.10;;;16.90;99.20;;;;;;10273665;28;20308;-85
2022/03/29 01:29:18;;;;;;;3.30;3.00;;;16.90;98.50;;;;;;10292353;28;20286;-85
2022/03/29 01:34:21;;;;;;;4.20;3.23;;;17.00;98.20;;;;;;10273166;28;20216;-85
2022/03/29 01:39:24;;;;;;;3.30;2.90;;;17.00;97.50;;;;;;10290919;28;20677;-86
2022/03/29 01:44:26;;;;;;;2.93;2.67;;;17.00;94.80;;;;;;10273560;28;20260;-85
2022/03/29 01:49:29;;;;;;;3.77;3.17;;;17.00;96.50;;;;;;10273889;28;20626;-85
2022/03/29 01:54:32;;;;;;;4.93;3.77;;;17.00;96.30;;;;;;10290910;28;20265;-85
2022/03/29 02:05:01;;;;;;;3.70;3.40;;;16.90;93.70;;;;;;10278587;28;20237;-85
2022/03/29 02:10:05;;;;;;;5.80;4.13;;;16.70;95.80;;;;;;10290765;28;20340;-85
2022/03/29 02:15:08;;;;;;;13.10;8.10;;;16.60;96.00;;;;;;10289382;28;20237;-85
2022/03/29 02:20:13;;;;;;;5.57;3.70;;;16.20;83.40;;;;;;10290105;28;20679;-85
2022/03/29 02:25:16;;;;;;;6.97;4.60;;;16.30;97.00;;;;;;10272111;28;20300;-85
2022/03/29 02:30:19;;;;;;;4.53;3.93;;;16.90;94.80;;;;;;10289800;28;20280;-85
2022/03/29 02:35:22;;;;;;;6.00;4.77;;;16.90;94.30;;;;;;10272010;28;20884;-85
2022/03/29 02:40:25;;;;;;;5.17;4.30;;;16.80;94.20;;;;;;10289187;28;20264;-85
2022/03/29 02:45:27;;;;;;;5.40;4.60;;;16.80;94.20;;;;;;10255545;28;20249;-84
2022/03/29 02:50:30;;;;;;;7.43;4.63;;;16.90;93.60;;;;;;10288492;28;20221;-84
2022/03/29 02:55:33;;;;;;;6.03;5.07;;;16.90;93.50;;;;;;10270443;28;20257;-84
2022/03/29 03:00:36;;;;;;;17.70;11.83;;;16.90;93.20;;;;;;10290478;28;20225;-84
2022/03/29 03:05:38;;;;;;;6.63;4.77;;;16.10;92.60;;;;;;10300424;28;20307;-84
2022/03/29 03:10:41;;;;;;;12.53;8.80;;;16.60;93.30;;;;;;10292883;28;20255;-84
2022/03/29 03:15:43;;;;;;;8.43;6.30;;;15.90;94.30;;;;;;10287391;28;20229;-84
2022/03/29 03:20:46;;;;;;;14.13;10.30;;;15.90;95.60;;;;;;10297253;28;20229;-84
2022/03/29 03:25:50;;;;;;;8.13;6.67;;;15.80;93.90;;;;;;10288554;28;20313;-84
2022/03/29 03:30:53;;;;;;;8.90;7.17;;;15.70;94.20;;;;;;10305117;28;20359;-84
2022/03/29 03:35:58;;;;;;;9.57;6.90;;;15.80;95.50;;;;;;10287623;28;20304;-84
2022/03/29 03:41:01;;;;;;;11.80;7.60;;;16.60;93.10;;;;;;10287588;28;20234;-84
2022/03/29 03:46:06;;;;;;;14.67;10.27;;;16.50;92.70;;;;;;10302080;28;20330;-84
2022/03/29 03:51:12;;;;;;;9.07;7.47;;;16.40;91.90;;;;;;10301252;28;20323;-84
2022/03/29 03:56:14;;;;;;;10.57;7.63;;;16.70;92.00;;;;;;10298191;28;20946;-84
2022/03/29 04:01:17;;;;;;;9.03;7.63;;;16.80;91.50;;;;;;10277680;28;20288;-85
2022/03/29 04:06:20;;;;;;;9.20;7.57;;;16.80;91.10;;;;;;10294567;28;20708;-85
2022/03/29 04:11:22;;;;;;;9.40;8.40;;;16.80;91.00;;;;;;10293878;28;20270;-85
2022/03/29 04:16:25;;;;;;;9.77;8.23;;;16.80;90.60;;;;;;10276753;28;20625;-85
2022/03/29 04:21:28;;;;;;;9.23;7.93;;;16.70;90.50;;;;;;10276701;28;20258;-85
2022/03/29 04:26:35;;;;;;;12.53;9.07;;;16.30;91.10;;;;;;10268686;28;20306;-85
2022/03/29 04:31:37;;;;;;;11.10;8.37;;;15.90;90.80;;;;;;10293422;28;20320;-85
2022/03/29 04:36:40;;;;;;;11.60;9.47;;;16.50;90.80;;;;;;10275679;28;20236;-85
2022/03/29 04:41:42;;;;;;;10.93;9.13;;;16.30;88.80;;;;;;10293829;28;20230;-85
2022/03/29 04:47:05;;;;;;;10.73;9.50;;;16.20;90.60;;;;;;10278881;28;20276;-85
2022/03/29 04:52:08;;;;;;;11.40;9.40;;;16.30;90.60;;;;;;10292670;28;20252;-84
2022/03/29 04:57:10;;;;;;;11.00;8.60;;;16.60;90.10;;;;;;10275421;28;20288;-84
2022/03/29 05:02:13;;;;;;;11.63;8.37;;;16.60;89.70;;;;;;10292161;28;20265;-84
2022/03/29 05:07:16;;;;;;;10.43;8.47;;;16.70;89.40;;;;;;10284484;28;20307;-84
2022/03/29 05:12:18;;;;;;;10.63;8.40;;;16.70;89.10;;;;;;10275931;28;20229;-84
2022/03/29 05:17:21;;;;;;;11.53;9.03;;;16.70;88.60;;;;;;10292911;28;20772;-84
2022/03/29 05:22:24;;;;;;;11.00;8.80;;;16.60;88.40;;;;;;10274955;28;20268;-84
2022/03/29 05:27:26;;;;;;;11.23;9.27;;;16.50;88.70;;;;;;10292136;28;20625;-84
2022/03/29 05:32:29;;;;;;;17.10;9.83;;;16.50;88.70;;;;;;10274353;28;20229;-84
2022/03/29 05:37:31;;;;;;;9.83;8.23;;;16.40;88.50;;;;;;10274420;28;20205;-83
2022/03/29 05:42:40;;;;;;;11.17;8.50;;;15.90;89.70;;;;;;10274790;28;20578;-84
2022/03/29 05:53:04;;;;;;;12.03;9.53;;;16.30;88.80;;;;;;10290684;28;20656;-84
2022/03/29 05:58:06;;;;;;;10.90;9.27;;;16.40;88.50;;;;;;10274486;28;20610;-84
2022/03/29 06:03:10;;;;;;;37.80;18.53;;;16.40;88.10;;;;;;10274304;28;20264;-92
2022/03/29 06:08:12;;;;;;;26.57;15.40;;;13.90;76.20;;;;;;10278540;28;20202;-91
2022/03/29 06:13:15;;;;;;;19.13;14.03;;;14.70;76.20;;;;;;10274808;28;20202;-91
2022/03/29 06:18:18;;;;;;;18.20;13.03;;;15.20;76.00;;;;;;10273976;28;20258;-91
2022/03/29 06:23:22;;;;;;;20.90;12.73;;;15.60;75.10;;;;;;10295281;28;20342;-91
2022/03/29 06:28:25;;;;;;;18.43;11.77;;;15.50;74.30;;;;;;10314141;28;20210;-91
2022/03/29 06:33:28;;;;;;;16.20;11.00;;;15.90;73.90;;;;;;10301700;28;20193;-93
2022/03/29 06:38:31;;;;;;;29.80;16.27;;;16.10;73.30;;;;;;10278962;28;20198;-91
2022/03/29 06:43:36;;;;;;;19.83;12.47;;;14.30;71.00;;;;;;10275266;28;20577;-92
2022/03/29 06:48:41;;;;;;;20.57;11.73;;;14.60;73.20;;;;;;10275269;28;20215;-93
2022/03/29 06:53:44;;;;;;;17.40;10.07;;;15.20;71.90;;;;;;10274323;28;20595;-92
2022/03/29 06:58:46;;;;;;;22.10;13.27;;;15.00;72.10;;;;;;10272114;28;20268;-82
2022/03/29 07:03:49;;;;;;;20.67;12.23;;;14.80;69.40;;;;;;10287317;28;20304;-82
2022/03/29 07:14:32;;;;;;;17.17;9.00;;;14.00;75.10;;;;;;10287989;28;20254;-81
2022/03/29 07:19:35;;;;;;;16.83;9.43;;;15.50;73.10;;;;;;10286755;28;20229;-82
2022/03/29 07:24:38;;;;;;;12.53;8.20;;;15.70;72.20;;;;;;10313915;28;20371;-81
2022/03/29 07:29:42;;;;;;;11.77;8.03;;;16.40;71.50;;;;;;10309570;28;20694;-81
2022/03/29 07:34:45;;;;;;;11.17;7.10;;;16.40;71.70;;;;;;10326576;28;20248;-81
2022/03/29 07:39:48;;;;;;;13.40;7.37;;;16.60;71.10;;;;;;10310207;28;20233;-81
2022/03/29 07:44:50;;;;;;;19.37;11.63;;;16.20;73.30;;;;;;10327304;28;20244;-81
2022/03/29 07:49:53;;;;;;;10.73;6.17;;;16.00;66.40;;;;;;10310579;28;20258;-81
2022/03/29 07:55:17;;;;;;;10.13;7.00;;;16.20;72.70;;;;;;10267517;28;20256;-81
2022/03/29 08:00:39;;;;;;;30.17;13.13;;;13.00;70.00;;;;;;10287262;28;20230;-81
2022/03/29 08:05:43;;;;;;;15.97;9.27;;;12.40;70.30;;;;;;10270164;28;20315;-81
2022/03/29 08:10:47;;;;;;;16.73;9.10;;;13.50;75.50;;;;;;10287313;28;20627;-81
2022/03/29 08:15:53;;;;;;;9.17;6.70;;;13.00;72.60;;;;;;10297407;28;20265;-81
2022/03/29 08:20:56;;;;;;;20.50;11.73;;;15.20;77.10;;;;;;10309654;28;20268;-81
2022/03/29 08:25:58;;;;;;;10.40;8.07;;;11.50;69.70;;;;;;10326579;28;20323;-81
2022/03/29 08:31:01;;;;;;;7.93;5.80;;;13.50;80.30;;;;;;10309192;28;20225;-81
2022/03/29 08:36:03;;;;;;;11.20;7.90;;;14.30;79.60;;;;;;10326819;28;20295;-81
2022/03/29 08:41:06;;;;;;;7.17;5.87;;;14.20;74.40;;;;;;10291380;28;20235;-81
2022/03/29 08:46:08;;;;;;;17.20;9.73;;;12.20;81.60;;;;;;10292423;28;20292;-81
2022/03/29 08:51:11;;;;;;;13.03;8.70;;;14.20;75.00;;;;;;10293900;28;20334;-81
2022/03/29 08:56:34;;;;;;;8.23;6.60;;;12.70;78.60;;;;;;10293869;28;20261;-81
2022/03/29 09:01:36;;;;;;;8.53;6.47;;;14.10;78.20;;;;;;10299447;28;20248;-81
2022/03/29 09:06:50;;;;;;;7.50;5.87;;;15.10;76.50;;;;;;10319133;28;20249;-81
2022/03/29 09:11:59;;;;;;;12.73;6.70;;;15.10;77.10;;;;;;10276727;28;20221;-81
2022/03/29 09:17:26;;;;;;;8.30;5.33;;;15.70;74.30;;;;;;10275534;28;20249;-81
2022/03/29 09:22:46;;;;;;;7.13;5.47;;;16.10;79.30;;;;;;10307510;28;20236;-81
2022/03/29 09:27:57;;;;;;;8.47;5.43;;;15.50;81.70;;;;;;10332579;28;20708;-81
2022/03/29 09:33:04;;;;;;;6.47;5.40;;;16.40;71.60;;;;;;10332076;28;20263;-81
2022/03/29 09:38:30;;;;;;;20.67;10.80;;;16.40;72.80;;;;;;10332602;28;20263;-80
2022/03/29 09:43:33;;;;;;;7.33;6.37;;;15.50;59.70;;;;;;10314302;28;20211;-81
2022/03/29 09:48:38;;;;;;;14.03;7.03;;;14.30;77.80;;;;;;10331429;28;20257;-81
2022/03/29 09:53:53;;;;;;;7.20;5.90;;;15.90;70.50;;;;;;10330907;28;20265;-81
2022/03/29 09:59:10;;;;;;;8.50;5.60;;;16.50;72.00;;;;;;10311878;28;20291;-81
2022/03/29 10:04:17;;;;;;;6.10;5.40;;;16.50;71.40;;;;;;10290620;28;20298;-81
2022/03/29 10:09:32;;;;;;;7.87;5.63;;;16.20;71.70;;;;;;10273139;28;20241;-81
2022/03/29 10:14:39;;;;;;;8.00;5.07;;;16.20;71.20;;;;;;10290230;28;20273;-81
2022/03/29 10:19:44;;;;;;;12.17;7.93;;;16.60;70.50;;;;;;10288929;28;20237;-81
2022/03/29 10:24:46;;;;;;;8.13;5.33;;;16.00;70.80;;;;;;10272630;28;20678;-81
2022/03/29 10:29:49;;;;;;;9.00;6.17;;;16.50;70.90;;;;;;10289659;28;20232;-81
2022/03/29 10:35:09;;;;;;;11.80;7.40;;;16.60;69.70;;;;;;10272734;28;20240;-82
2022/03/29 10:40:35;;;;;;;24.17;12.37;;;15.60;71.40;;;;;;10303853;28;20232;-81
2022/03/29 10:45:37;;;;;;;8.50;6.23;;;15.00;71.00;;;;;;10311759;28;20318;-81
2022/03/29 10:50:54;;;;;;;9.20;6.20;;;16.20;66.80;;;;;;10303870;28;20224;-81
2022/03/29 10:56:15;;;;;;;6.80;5.97;;;15.90;71.60;;;;;;10289032;28;20294;-81
2022/03/29 11:01:18;;;;;;;7.97;6.20;;;15.80;72.20;;;;;;10288988;28;20237;-81
2022/03/29 11:06:20;;;;;;;10.63;7.37;;;16.20;70.70;;;;;;10259978;28;20662;-81
2022/03/29 11:11:40;;;;;;;7.87;6.23;;;16.30;67.60;;;;;;10271685;28;20231;-81
2022/03/29 11:16:43;;;;;;;6.90;5.27;;;15.00;73.80;;;;;;10287949;28;20269;-81
2022/03/29 11:21:45;;;;;;;6.23;5.23;;;14.50;75.40;;;;;;10271028;28;20239;-81
2022/03/29 11:26:55;;;;;;;8.07;5.67;;;15.80;72.30;;;;;;10302541;28;20325;-81
2022/03/29 11:32:01;;;;;;;8.63;6.00;;;16.20;70.90;;;;;;10305768;28;20240;-81
2022/03/29 11:37:04;;;;;;;7.23;5.70;;;16.30;70.20;;;;;;10287482;28;20348;-81
2022/03/29 11:42:07;;;;;;;10.60;7.57;;;16.20;70.40;;;;;;10288032;28;20237;-81
2022/03/29 11:47:09;;;;;;;11.87;8.23;;;16.30;69.90;;;;;;10287017;28;20339;-81
2022/03/29 11:52:20;;;;;;;10.80;6.17;;;14.90;71.90;;;;;;10270214;28;20318;-81
2022/03/29 11:57:26;;;;;;;9.03;7.00;;;15.40;71.50;;;;;;10270483;28;20240;-81
2022/03/29 12:02:28;;;;;;;8.30;5.80;;;16.00;70.50;;;;;;10287363;28;20284;-81
2022/03/29 12:07:45;;;;;;;28.60;15.67;;;16.00;70.80;;;;;;10287257;28;20399;-81
2022/03/29 12:12:51;;;;;;;15.53;9.63;;;14.60;66.30;;;;;;10270174;28;20767;-81
2022/03/29 12:23:23;;;;;;;14.77;8.57;;;14.90;64.80;;;;;;10294604;28;20241;-81
2022/03/29 12:28:26;;;;;;;38.37;19.53;;;15.30;71.20;;;;;;10276612;28;20260;-81
2022/03/29 12:33:33;;;;;;;38.10;19.10;;;15.10;64.30;;;;;;10293052;28;20210;-81
2022/03/29 12:38:52;;;;;;;25.37;13.97;;;15.00;65.80;;;;;;10281016;28;20233;-81
2022/03/29 12:43:55;;;;;;;14.40;8.50;;;13.00;72.30;;;;;;10276303;28;20765;-81
2022/03/29 12:48:58;;;;;;;7.43;6.23;;;14.00;76.80;;;;;;10293372;28;20276;-81
2022/03/29 12:54:06;;;;;;;9.03;5.93;;;15.50;73.00;;;;;;10276369;28;20257;-81
2022/03/29 12:59:31;;;;;;;16.93;10.77;;;15.60;72.30;;;;;;10259646;28;20290;-81
2022/03/29 13:04:44;;;;;;;9.73;5.77;;;15.50;71.40;;;;;;10291944;28;20207;-81
2022/03/29 13:09:59;;;;;;;6.67;5.40;;;15.70;72.10;;;;;;10275686;28;20625;-81
2022/03/29 13:16:06;;;;;;;7.47;6.43;;;16.10;71.00;;;;;;10277730;28;20237;-81
2022/03/29 13:21:19;;;;;;;7.90;6.53;;;16.20;70.70;;;;;;10168097;29;20251;-81
2022/03/29 13:26:43;;;;;;;20.63;13.60;;;16.20;70.60;;;;;;10132114;29;20274;-92
2022/03/29 13:31:49;;;;;;;22.10;12.73;;;15.30;67.10;;;;;;10138654;29;20290;-91
2022/03/29 13:36:52;;;;;;;25.23;13.20;;;15.50;67.30;;;;;;10153604;29;20243;-91
2022/03/29 13:41:54;;;;;;;21.87;11.67;;;15.60;65.10;;;;;;10170324;29;20333;-92
2022/03/29 13:46:57;;;;;;;28.83;13.23;;;15.80;67.20;;;;;;10169665;29;20260;-91
2022/03/29 13:52:00;;;;;;;22.50;10.87;;;15.90;61.70;;;;;;10165277;29;20647;-83
2022/03/29 13:57:03;;;;;;;24.60;9.50;;;15.20;68.00;;;;;;10265933;28;20757;-83
2022/03/29 14:02:05;;;;;;;22.50;11.20;;;15.90;64.90;;;;;;10289776;28;20766;-84
2022/03/29 14:07:13;;;;;;;20.17;9.67;;;15.90;59.70;;;;;;10308418;28;20282;-83
2022/03/29 14:12:16;;;;;;;28.33;15.40;;;16.50;60.10;;;;;;10323273;28;20320;-83
2022/03/29 14:17:19;;;;;;;14.83;7.87;;;14.60;56.60;;;;;;10255678;28;20680;-83
2022/03/29 14:22:21;;;;;;;11.20;6.93;;;15.50;66.20;;;;;;10290225;28;20237;-84
2022/03/29 14:27:24;;;;;;;8.77;7.20;;;16.80;63.20;;;;;;10289007;28;20249;-83
2022/03/29 14:32:26;;;;;;;11.33;7.50;;;16.70;63.00;;;;;;10289228;28;20234;-84
2022/03/29 14:37:29;;;;;;;9.93;7.20;;;16.80;63.20;;;;;;10271909;28;20237;-84
2022/03/29 14:42:31;;;;;;;25.93;13.87;;;16.20;64.60;;;;;;10271822;28;20209;-84
2022/03/29 14:47:38;;;;;;;13.23;7.03;;;15.80;55.70;;;;;;10287270;28;20251;-84
2022/03/29 14:52:43;;;;;;;21.20;11.80;;;16.30;64.60;;;;;;10312658;28;21006;-84
2022/03/29 14:57:46;;;;;;;12.00;6.53;;;16.40;59.60;;;;;;10280664;28;20237;-85
2022/03/29 15:02:49;;;;;;;12.80;7.37;;;17.10;63.10;;;;;;10288401;28;20234;-84
2022/03/29 15:07:53;;;;;;;8.47;5.90;;;17.00;62.40;;;;;;10312550;28;20284;-84
2022/03/29 15:12:56;;;;;;;9.07;6.07;;;16.70;64.00;;;;;;10311031;28;20287;-85
2022/03/29 15:17:58;;;;;;;16.70;11.40;;;17.10;63.60;;;;;;10275202;28;20229;-84
2022/03/29 15:23:02;;;;;;;13.63;9.17;;;15.80;54.90;;;;;;10256483;28;20223;-84
2022/03/29 15:28:04;;;;;;;13.97;9.20;;;16.60;54.10;;;;;;10297073;28;20268;-84
2022/03/29 15:33:07;;;;;;;10.83;7.80;;;16.40;54.30;;;;;;10269881;28;20259;-83
2022/03/29 15:38:11;;;;;;;16.57;9.50;;;16.90;55.00;;;;;;10270011;28;20766;-84
2022/03/29 15:43:15;;;;;;;11.57;7.87;;;15.90;55.30;;;;;;10269687;28;20280;-84
2022/03/29 15:48:18;;;;;;;11.53;6.77;;;15.60;57.50;;;;;;10305093;28;20295;-84
2022/03/29 15:53:20;;;;;;;10.70;7.20;;;16.40;57.70;;;;;;10295582;28;20272;-84
2022/03/29 15:58:23;;;;;;;10.20;6.80;;;17.00;56.70;;;;;;10287937;28;20628;-84
2022/03/29 16:03:46;;;;;;;8.13;5.83;;;16.90;57.40;;;;;;10287187;28;20667;-84
2022/03/29 16:08:48;;;;;;;14.50;8.20;;;16.50;57.70;;;;;;10318500;28;20314;-84
2022/03/29 16:13:51;;;;;;;8.23;6.43;;;16.50;57.50;;;;;;10289288;28;20269;-84
2022/03/29 16:18:53;;;;;;;14.73;8.85;;;15.80;59.80;;;;;;9942100;28;10000293;-84
2022/03/29 16:23:57;;;;;;;9.50;6.73;;;15.50;58.60;;;;;;10284676;28;20253;-84
2022/03/29 16:29:01;;;;;;;7.43;5.87;;;16.30;60.10;;;;;;10283261;28;20641;-84
2022/03/29 16:34:04;;;;;;;12.07;7.83;;;16.30;60.20;;;;;;10281528;28;20229;-84
2022/03/29 16:39:07;;;;;;;9.83;5.60;;;16.30;58.20;;;;;;10278434;28;20240;-84
2022/03/29 16:44:10;;;;;;;11.23;8.07;;;16.30;60.70;;;;;;10282278;28;20242;-84
2022/03/29 16:49:14;;;;;;;7.53;5.73;;;16.20;58.70;;;;;;10281218;28;20245;-84
2022/03/29 16:54:17;;;;;;;7.33;5.50;;;16.30;60.90;;;;;;10264135;28;20298;-83
2022/03/29 16:59:20;;;;;;;7.53;5.63;;;16.40;60.90;;;;;;10281856;28;20276;-84
2022/03/29 17:04:23;;;;;;;14.23;9.13;;;16.10;61.60;;;;;;10291226;28;21182;-83
2022/03/29 17:09:26;;;;;;;18.50;10.13;;;15.60;61.30;;;;;;10275887;28;20230;-83
2022/03/29 17:14:28;;;;;;;34.93;13.67;;;15.00;62.60;;;;;;10284417;28;20209;-83
2022/03/29 17:19:31;;;;;;;50.57;18.60;;;13.90;63.40;;;;;;10308323;28;20205;-83
2022/03/29 17:24:33;;;;;;;45.93;21.90;;;12.10;59.90;;;;;;10360955;28;20205;-84
2022/03/29 17:29:37;;;;;;;27.23;13.93;;;10.80;65.30;;;;;;10362633;28;20229;-84
2022/03/29 17:34:40;;;;;;;89.33;32.57;;;11.10;75.00;;;;;;10346148;28;20193;-83
2022/03/29 17:39:43;;;;;;;160.70;66.33;;;11.70;73.40;;;;;;10337708;28;20213;-84
2022/03/29 17:44:45;;;;;;;98.93;41.27;;;11.00;69.70;;;;;;10327033;28;20206;-83
2022/03/29 17:49:48;;;;;;;10.53;6.53;;;10.90;73.70;;;;;;10326880;28;20198;-82
2022/03/29 17:54:51;;;;;;;13.43;8.07;;;11.70;77.10;;;;;;10327987;28;20243;-84
2022/03/29 17:59:53;;;;;;;14.47;10.03;;;13.30;72.30;;;;;;10348233;28;20187;-83
2022/03/29 18:04:56;;;;;;;10.90;8.00;;;13.80;70.50;;;;;;10348770;28;20174;-83
2022/03/29 18:10:02;;;;;;;20.37;11.67;;;14.10;69.90;;;;;;10365752;28;20251;-83
2022/03/29 18:15:05;;;;;;;14.83;8.97;;;14.20;68.80;;;;;;10362626;28;20218;-83
2022/03/29 18:20:09;;;;;;;12.43;7.97;;;14.20;69.40;;;;;;10326255;28;20217;-81
2022/03/29 18:25:13;;;;;;;15.70;8.27;;;13.70;70.50;;;;;;10299720;28;20197;-84
2022/03/29 18:30:19;;;;;;;82.00;41.53;;;14.20;69.60;;;;;;10310435;28;20218;-84
2022/03/29 18:35:23;;;;;;;36.93;19.87;;;13.70;64.90;;;;;;10312629;28;20268;-84
2022/03/29 18:40:26;;;;;;;13.47;8.93;;;12.80;72.20;;;;;;10311111;28;20201;-83
2022/03/29 18:45:30;;;;;;;67.00;29.00;;;12.80;73.70;;;;;;10310386;28;20206;-83
2022/03/29 18:50:33;;;;;;;65.17;30.27;;;12.70;71.30;;;;;;10342642;28;20198;-83
2022/03/29 18:55:36;;;;;;;22.50;13.07;;;11.00;66.00;;;;;;10340423;28;20235;-84
2022/03/29 19:00:38;;;;;;;26.67;14.50;;;10.40;78.50;;;;;;10313140;28;20205;-84
2022/03/29 19:05:41;;;;;;;54.30;26.50;;;11.80;77.40;;;;;;10326283;28;20237;-84
2022/03/29 19:10:45;;;;;;;23.90;14.97;;;11.80;71.20;;;;;;10317531;28;20217;-83
2022/03/29 19:15:47;;;;;;;31.97;15.90;;;12.10;76.00;;;;;;10311629;28;20249;-83
2022/03/29 19:20:50;;;;;;;28.07;15.33;;;11.70;75.80;;;;;;10297930;28;20225;-83
2022/03/29 19:25:56;;;;;;;43.53;22.57;;;12.20;76.10;;;;;;10316120;28;20232;-83
2022/03/29 19:31:00;;;;;;;48.30;26.07;;;11.30;73.30;;;;;;10298873;28;20230;-83
2022/03/29 19:36:03;;;;;;;49.20;24.47;;;10.80;78.70;;;;;;10302911;28;20237;-83
2022/03/29 19:41:05;;;;;;;29.67;16.63;;;11.10;76.80;;;;;;10280309;28;20703;-83
2022/03/29 19:46:12;;;;;;;29.10;15.20;;;11.30;79.30;;;;;;10294170;28;20210;-83
2022/03/29 19:51:35;;;;;;;52.93;22.07;;;11.70;77.60;;;;;;10282575;28;20647;-84
2022/03/29 19:56:38;;;;;;;36.93;21.40;;;11.40;77.70;;;;;;10281775;28;20205;-84
2022/03/29 20:01:40;;;;;;;34.53;18.97;;;11.20;77.60;;;;;;10294193;28;20252;-83
2022/03/29 20:06:43;;;;;;;39.27;20.47;;;11.30;79.10;;;;;;10275083;28;20223;-83
2022/03/29 20:11:51;;;;;;;52.93;25.80;;;11.40;78.10;;;;;;10290534;28;20250;-83
2022/03/29 20:16:53;;;;;;;25.37;15.67;;;11.30;77.00;;;;;;10272645;28;20207;-84
2022/03/29 20:21:59;;;;;;;39.37;19.63;;;11.50;78.80;;;;;;10288387;28;20199;-83
2022/03/29 20:27:03;;;;;;;22.53;14.33;;;11.80;77.20;;;;;;10288112;28;20320;-84
2022/03/29 20:32:06;;;;;;;29.37;15.83;;;12.20;77.00;;;;;;10273272;28;20210;-84
2022/03/29 20:37:08;;;;;;;27.80;15.27;;;12.30;76.30;;;;;;10294986;28;20202;-84
2022/03/29 20:42:11;;;;;;;37.90;18.97;;;12.30;76.50;;;;;;10295432;28;20256;-84
2022/03/29 20:47:13;;;;;;;56.67;27.90;;;12.20;76.10;;;;;;10291447;28;20245;-84
2022/03/29 20:52:16;;;;;;;47.70;25.13;;;12.30;74.60;;;;;;10288973;28;20252;-84
2022/03/29 20:57:19;;;;;;;18.37;12.03;;;11.90;76.50;;;;;;10285598;28;20233;-84
2022/03/29 21:02:21;;;;;;;33.73;18.00;;;11.90;78.60;;;;;;10307382;28;20267;-84
2022/03/29 21:07:24;;;;;;;43.70;22.03;;;12.40;76.20;;;;;;10311310;28;20240;-84
2022/03/29 21:12:26;;;;;;;58.70;30.17;;;11.90;77.20;;;;;;10312993;28;20248;-84
2022/03/29 21:17:29;;;;;;;41.97;22.73;;;12.30;74.50;;;;;;10305404;28;20292;-84
2022/03/29 21:22:32;;;;;;;25.70;16.67;;;12.20;76.30;;;;;;10294253;28;20295;-84
2022/03/29 21:28:00;;;;;;;22.30;13.30;;;12.40;76.60;;;;;;10309258;28;20688;-85
2022/03/29 21:33:03;;;;;;;28.83;17.03;;;12.40;76.70;;;;;;10285241;28;20241;-84
2022/03/29 21:38:07;;;;;;;40.87;20.23;;;12.70;75.60;;;;;;10292728;28;20240;-84
2022/03/29 21:43:10;;;;;;;68.93;30.90;;;12.50;75.20;;;;;;10285146;28;20296;-84
2022/03/29 21:48:15;;;;;;;19.20;12.07;;;12.10;75.70;;;;;;10287508;28;20253;-84
2022/03/29 21:53:18;;;;;;;73.63;35.80;;;13.20;74.90;;;;;;10299683;28;20319;-84
2022/03/29 21:58:39;;;;;;;39.83;21.70;;;13.30;71.60;;;;;;10302272;28;20231;-84
2022/03/29 22:04:00;;;;;;;18.40;11.80;;;12.50;75.70;;;;;;10307893;28;20718;-84
2022/03/29 22:09:21;;;;;;;31.23;17.80;;;13.00;75.40;;;;;;10312279;28;20261;-84
2022/03/29 22:14:24;;;;;;;19.43;12.53;;;13.30;73.60;;;;;;10306952;28;20677;-84
2022/03/29 22:19:53;;;;;;;31.93;17.87;;;13.50;73.80;;;;;;10286677;28;20702;-84
2022/03/29 22:24:55;;;;;;;32.57;17.87;;;13.40;72.40;;;;;;10255996;28;20213;-84
2022/03/29 22:30:01;;;;;;;31.20;18.40;;;13.20;73.10;;;;;;10289598;28;20710;-84
2022/03/29 22:35:05;;;;;;;38.57;18.60;;;12.80;73.60;;;;;;10256274;28;20640;-84
2022/03/29 22:40:08;;;;;;;27.43;15.23;;;12.20;74.80;;;;;;10289180;28;20230;-84
2022/03/29 22:45:11;;;;;;;26.63;14.77;;;12.00;77.20;;;;;;10288475;28;20241;-84
2022/03/29 22:50:13;;;;;;;19.87;12.37;;;12.50;76.50;;;;;;10289251;28;20257;-84
2022/03/29 22:55:16;;;;;;;17.90;12.67;;;13.10;74.90;;;;;;10271838;28;20257;-84
2022/03/29 23:00:19;;;;;;;24.67;13.47;;;13.20;74.40;;;;;;10288303;28;20837;-84
2022/03/29 23:05:22;;;;;;;30.00;16.23;;;13.50;73.30;;;;;;10288453;28;20236;-84
2022/03/29 23:10:24;;;;;;;29.53;15.43;;;13.10;72.70;;;;;;10288884;28;20313;-84
2022/03/29 23:15:27;;;;;;;22.43;13.90;;;12.30;73.20;;;;;;10288649;28;20248;-84
2022/03/29 23:20:29;;;;;;;21.00;13.23;;;12.00;76.40;;;;;;10288116;28;20284;-84
2022/03/29 23:25:32;;;;;;;23.83;13.47;;;12.30;76.40;;;;;;10288563;28;20241;-84
2022/03/29 23:30:35;;;;;;;23.70;14.57;;;12.40;75.30;;;;;;10271210;28;20315;-84
2022/03/29 23:35:37;;;;;;;18.63;12.73;;;12.00;76.40;;;;;;10288303;28;20228;-85
2022/03/29 23:40:40;;;;;;;21.70;12.93;;;12.20;77.20;;;;;;10288515;28;20253;-84
2022/03/29 23:45:42;;;;;;;23.07;13.70;;;12.00;76.60;;;;;;10271145;28;20241;-84
2022/03/29 23:50:45;;;;;;;28.30;16.57;;;11.80;75.20;;;;;;10287892;28;20253;-84
2022/03/29 23:55:48;;;;;;;25.07;14.40;;;11.70;75.90;;;;;;10270154;28;20750;-84
